sensor_id;sensor_type;location;lat;lon;timestamp;pressure;altitude;pressure_sealevel;temperature;humidity
64404;BME280;50726;54.912;-8.392;2023-02-03T00:01:00;101559.13;;;30.16;62.70
64404;BME280;50726;54.912;-8.392;2023-02-03T00:03:27;101552.25;;;30.61;62.51
64404;BME280;50726;54.912;-8.392;2023-02-03T00:05:53;101571.97;;;31.39;60.50
64404;BME280;50726;54.912;-8.392;2023-02-03T00:08:20;101583.84;;;31.18;59.90
64404;BME280;50726;54.912;-8.392;2023-02-03T00:10:46;101583.03;;;29.89;62.58
64404;BME280;50726;54.912;-8.392;2023-02-03T00:13:12;101582.19;;;30.97;61.91
64404;BME280;50726;54.912;-8.392;2023-02-03T00:15:38;101578.84;;;30.26;61.61
64404;BME280;50726;54.912;-8.392;2023-02-03T00:18:04;101600.44;;;30.36;61.17
64404;BME280;50726;54.912;-8.392;2023-02-03T00:20:30;101593.50;;;29.72;61.44
64404;BME280;50726;54.912;-8.392;2023-02-03T00:23:05;101597.41;;;29.99;61.53
64404;BME280;50726;54.912;-8.392;2023-02-03T00:25:32;101616.75;;;30.64;61.12
64404;BME280;50726;54.912;-8.392;2023-02-03T00:27:58;101602.97;;;29.35;62.30
64404;BME280;50726;54.912;-8.392;2023-02-03T00:30:23;101619.72;;;30.31;61.30
64404;BME280;50726;54.912;-8.392;2023-02-03T00:32:49;101634.13;;;30.71;60.56
64404;BME280;50726;54.912;-8.392;2023-02-03T00:35:15;101621.72;;;30.09;59.98
64404;BME280;50726;54.912;-8.392;2023-02-03T00:37:40;101635.91;;;30.21;59.84
64404;BME280;50726;54.912;-8.392;2023-02-03T00:40:06;101646.66;;;30.01;60.64
64404;BME280;50726;54.912;-8.392;2023-02-03T00:42:35;101646.22;;;31.34;59.22
64404;BME280;50726;54.912;-8.392;2023-02-03T00:45:01;101645.06;;;29.89;59.74
64404;BME280;50726;54.912;-8.392;2023-02-03T00:47:28;101655.97;;;31.07;59.97
64404;BME280;50726;54.912;-8.392;2023-02-03T00:49:53;101649.31;;;29.51;59.89
64404;BME280;50726;54.912;-8.392;2023-02-03T00:52:19;101646.84;;;29.69;60.40
64404;BME280;50726;54.912;-8.392;2023-02-03T00:54:45;101644.44;;;30.17;59.99
64404;BME280;50726;54.912;-8.392;2023-02-03T00:57:10;101650.75;;;29.55;60.61
64404;BME280;50726;54.912;-8.392;2023-02-03T00:59:36;101646.41;;;29.42;60.30
64404;BME280;50726;54.912;-8.392;2023-02-03T01:02:01;101659.50;;;30.39;60.25
64404;BME280;50726;54.912;-8.392;2023-02-03T01:04:27;101659.81;;;30.36;57.94
64404;BME280;50726;54.912;-8.392;2023-02-03T01:06:53;101647.75;;;29.27;59.17
64404;BME280;50726;54.912;-8.392;2023-02-03T01:09:23;101644.19;;;30.49;58.94
64404;BME280;50726;54.912;-8.392;2023-02-03T01:11:48;101655.44;;;30.04;58.61
64404;BME280;50726;54.912;-8.392;2023-02-03T01:14:14;101662.50;;;29.85;58.10
64404;BME280;50726;54.912;-8.392;2023-02-03T01:16:41;101639.34;;;30.63;57.28
64404;BME280;50726;54.912;-8.392;2023-02-03T01:19:06;101645.97;;;29.68;58.06
64404;BME280;50726;54.912;-8.392;2023-02-03T01:21:33;101658.81;;;29.96;58.40
64404;BME280;50726;54.912;-8.392;2023-02-03T01:24:01;101654.09;;;29.47;58.83
64404;BME280;50726;54.912;-8.392;2023-02-03T01:26:27;101649.41;;;29.70;57.83
64404;BME280;50726;54.912;-8.392;2023-02-03T01:28:54;101651.84;;;30.44;56.87
64404;BME280;50726;54.912;-8.392;2023-02-03T01:31:24;101643.03;;;30.62;56.98
64404;BME280;50726;54.912;-8.392;2023-02-03T01:33:52;101646.22;;;31.44;54.78
64404;BME280;50726;54.912;-8.392;2023-02-03T01:36:19;101617.97;;;30.00;55.39
64404;BME280;50726;54.912;-8.392;2023-02-03T01:38:46;101640.78;;;30.57;55.90
64404;BME280;50726;54.912;-8.392;2023-02-03T01:41:19;101646.34;;;30.05;56.08
64404;BME280;50726;54.912;-8.392;2023-02-03T01:43:48;101637.03;;;29.15;57.33
64404;BME280;50726;54.912;-8.392;2023-02-03T01:46:38;101635.56;;;31.23;54.09
64404;BME280;50726;54.912;-8.392;2023-02-03T01:49:10;101640.91;;;30.95;54.89
64404;BME280;50726;54.912;-8.392;2023-02-03T01:51:39;101634.13;;;31.39;53.95
64404;BME280;50726;54.912;-8.392;2023-02-03T01:54:10;101618.03;;;30.20;56.17
64404;BME280;50726;54.912;-8.392;2023-02-03T01:56:39;101619.66;;;32.32;52.67
64404;BME280;50726;54.912;-8.392;2023-02-03T01:59:07;101642.72;;;31.04;52.55
64404;BME280;50726;54.912;-8.392;2023-02-03T02:01:34;101625.25;;;31.56;52.39
64404;BME280;50726;54.912;-8.392;2023-02-03T02:04:03;101631.72;;;32.20;52.12
64404;BME280;50726;54.912;-8.392;2023-02-03T02:06:30;101634.81;;;31.51;51.05
64404;BME280;50726;54.912;-8.392;2023-02-03T02:08:57;101637.22;;;31.82;51.62
64404;BME280;50726;54.912;-8.392;2023-02-03T02:11:26;101635.03;;;31.29;51.84
64404;BME280;50726;54.912;-8.392;2023-02-03T02:13:56;101644.13;;;31.28;52.70
64404;BME280;50726;54.912;-8.392;2023-02-03T02:24:56;101657.47;;;32.78;51.77
64404;BME280;50726;54.912;-8.392;2023-02-03T02:38:23;101659.59;;;31.74;52.87
64404;BME280;50726;54.912;-8.392;2023-02-03T02:41:02;101645.63;;;32.98;50.65
64404;BME280;50726;54.912;-8.392;2023-02-03T02:46:35;101656.34;;;30.14;55.89
64404;BME280;50726;54.912;-8.392;2023-02-03T02:51:37;101654.25;;;31.06;56.09
64404;BME280;50726;54.912;-8.392;2023-02-03T02:54:07;101659.34;;;31.29;52.75
64404;BME280;50726;54.912;-8.392;2023-02-03T02:56:38;101647.31;;;33.25;51.49
64404;BME280;50726;54.912;-8.392;2023-02-03T02:59:06;101639.75;;;30.68;53.09
64404;BME280;50726;54.912;-8.392;2023-02-03T03:01:32;101643.41;;;32.38;51.44
64404;BME280;50726;54.912;-8.392;2023-02-03T03:04:02;101641.03;;;31.89;51.77
64404;BME280;50726;54.912;-8.392;2023-02-03T03:06:34;101640.56;;;32.58;53.51
64404;BME280;50726;54.912;-8.392;2023-02-03T03:09:15;101637.53;;;30.73;53.26
64404;BME280;50726;54.912;-8.392;2023-02-03T03:11:53;101631.56;;;32.03;52.18
64404;BME280;50726;54.912;-8.392;2023-02-03T03:14:22;101670.81;;;33.16;50.86
64404;BME280;50726;54.912;-8.392;2023-02-03T03:16:56;101664.59;;;31.21;54.65
64404;BME280;50726;54.912;-8.392;2023-02-03T03:19:27;101678.41;;;31.18;54.91
64404;BME280;50726;54.912;-8.392;2023-02-03T03:21:59;101678.34;;;32.32;53.16
64404;BME280;50726;54.912;-8.392;2023-02-03T03:24:32;101682.91;;;31.75;55.79
64404;BME280;50726;54.912;-8.392;2023-02-03T03:27:14;101663.47;;;31.14;55.64
64404;BME280;50726;54.912;-8.392;2023-02-03T03:29:46;101688.75;;;32.36;53.69
64404;BME280;50726;54.912;-8.392;2023-02-03T03:32:14;101680.97;;;30.31;57.27
64404;BME280;50726;54.912;-8.392;2023-02-03T03:34:40;101670.03;;;30.62;56.00
64404;BME280;50726;54.912;-8.392;2023-02-03T03:40:11;101701.06;;;30.77;57.54
64404;BME280;50726;54.912;-8.392;2023-02-03T03:42:47;101706.69;;;30.35;57.12
64404;BME280;50726;54.912;-8.392;2023-02-03T03:45:30;101686.63;;;32.12;54.09
64404;BME280;50726;54.912;-8.392;2023-02-03T03:48:15;101678.16;;;30.72;55.29
64404;BME280;50726;54.912;-8.392;2023-02-03T03:51:05;101680.88;;;29.17;59.90
64404;BME280;50726;54.912;-8.392;2023-02-03T03:53:35;101684.44;;;31.59;55.81
64404;BME280;50726;54.912;-8.392;2023-02-03T03:56:05;101691.75;;;30.50;57.58
64404;BME280;50726;54.912;-8.392;2023-02-03T03:58:33;101685.81;;;33.29;53.42
64404;BME280;50726;54.912;-8.392;2023-02-03T04:01:02;101697.16;;;31.87;55.42
64404;BME280;50726;54.912;-8.392;2023-02-03T04:03:41;101686.94;;;31.71;57.03
64404;BME280;50726;54.912;-8.392;2023-02-03T04:06:10;101692.31;;;31.23;57.05
64404;BME280;50726;54.912;-8.392;2023-02-03T04:08:36;101697.03;;;30.01;58.48
64404;BME280;50726;54.912;-8.392;2023-02-03T04:11:03;101678.63;;;30.16;59.85
64404;BME280;50726;54.912;-8.392;2023-02-03T04:13:30;101684.56;;;31.00;58.79
64404;BME280;50726;54.912;-8.392;2023-02-03T04:15:56;101683.09;;;31.73;57.09
64404;BME280;50726;54.912;-8.392;2023-02-03T04:18:21;101677.75;;;31.92;56.82
64404;BME280;50726;54.912;-8.392;2023-02-03T04:20:47;101691.03;;;31.37;58.64
64404;BME280;50726;54.912;-8.392;2023-02-03T04:23:13;101685.78;;;30.47;58.75
64404;BME280;50726;54.912;-8.392;2023-02-03T04:25:38;101682.53;;;30.63;58.96
64404;BME280;50726;54.912;-8.392;2023-02-03T04:28:04;101684.34;;;31.79;57.88
64404;BME280;50726;54.912;-8.392;2023-02-03T04:30:30;101686.22;;;30.42;60.93
64404;BME280;50726;54.912;-8.392;2023-02-03T04:32:56;101680.84;;;30.62;60.40
64404;BME280;50726;54.912;-8.392;2023-02-03T04:35:22;101690.94;;;30.89;60.60
64404;BME280;50726;54.912;-8.392;2023-02-03T04:37:48;101706.72;;;29.72;65.59
64404;BME280;50726;54.912;-8.392;2023-02-03T04:40:13;101713.78;;;29.64;64.68
64404;BME280;50726;54.912;-8.392;2023-02-03T04:42:40;101728.44;;;29.50;64.88
64404;BME280;50726;54.912;-8.392;2023-02-03T04:45:08;101716.06;;;31.39;63.20
64404;BME280;50726;54.912;-8.392;2023-02-03T04:47:35;101694.06;;;28.99;66.70
64404;BME280;50726;54.912;-8.392;2023-02-03T04:50:01;101721.88;;;30.05;65.74
64404;BME280;50726;54.912;-8.392;2023-02-03T04:52:27;101701.75;;;29.04;66.37
64404;BME280;50726;54.912;-8.392;2023-02-03T04:54:52;101704.69;;;30.66;62.70
64404;BME280;50726;54.912;-8.392;2023-02-03T04:57:18;101714.78;;;29.41;65.37
64404;BME280;50726;54.912;-8.392;2023-02-03T04:59:44;101733.59;;;30.15;62.81
64404;BME280;50726;54.912;-8.392;2023-02-03T05:02:10;101713.03;;;29.83;67.25
64404;BME280;50726;54.912;-8.392;2023-02-03T05:04:36;101719.81;;;29.13;67.55
64404;BME280;50726;54.912;-8.392;2023-02-03T05:07:01;101720.28;;;29.61;64.82
64404;BME280;50726;54.912;-8.392;2023-02-03T05:09:29;101719.38;;;29.51;65.86
64404;BME280;50726;54.912;-8.392;2023-02-03T05:11:54;101746.25;;;30.85;62.39
64404;BME280;50726;54.912;-8.392;2023-02-03T05:14:21;101729.97;;;30.36;66.24
64404;BME280;50726;54.912;-8.392;2023-02-03T05:16:47;101726.50;;;30.24;64.09
64404;BME280;50726;54.912;-8.392;2023-02-03T05:19:13;101734.88;;;31.01;63.36
64404;BME280;50726;54.912;-8.392;2023-02-03T05:21:39;101762.50;;;30.54;62.57
64404;BME280;50726;54.912;-8.392;2023-02-03T05:24:05;101722.53;;;29.56;63.94
64404;BME280;50726;54.912;-8.392;2023-02-03T05:26:33;101744.47;;;29.30;67.69
64404;BME280;50726;54.912;-8.392;2023-02-03T05:28:58;101729.28;;;29.71;66.01
64404;BME280;50726;54.912;-8.392;2023-02-03T05:31:24;101728.75;;;27.91;69.36
64404;BME280;50726;54.912;-8.392;2023-02-03T05:33:50;101731.16;;;28.96;67.32
64404;BME280;50726;54.912;-8.392;2023-02-03T05:36:15;101746.22;;;29.83;65.85
64404;BME280;50726;54.912;-8.392;2023-02-03T05:38:41;101740.56;;;30.98;64.19
64404;BME280;50726;54.912;-8.392;2023-02-03T05:41:09;101736.75;;;30.30;65.78
64404;BME280;50726;54.912;-8.392;2023-02-03T05:43:53;101736.53;;;28.63;68.30
64404;BME280;50726;54.912;-8.392;2023-02-03T05:46:19;101742.81;;;29.17;67.88
64404;BME280;50726;54.912;-8.392;2023-02-03T05:48:45;101724.88;;;30.01;64.74
64404;BME280;50726;54.912;-8.392;2023-02-03T05:51:12;101738.16;;;29.62;65.16
64404;BME280;50726;54.912;-8.392;2023-02-03T05:53:37;101719.09;;;29.11;66.56
64404;BME280;50726;54.912;-8.392;2023-02-03T05:56:03;101727.84;;;28.59;66.34
64404;BME280;50726;54.912;-8.392;2023-02-03T05:58:28;101733.09;;;30.41;64.22
64404;BME280;50726;54.912;-8.392;2023-02-03T06:00:54;101736.91;;;29.45;67.01
64404;BME280;50726;54.912;-8.392;2023-02-03T06:03:20;101739.91;;;31.64;60.69
64404;BME280;50726;54.912;-8.392;2023-02-03T06:05:46;101771.91;;;29.56;63.33
64404;BME280;50726;54.912;-8.392;2023-02-03T06:08:11;101740.09;;;30.53;62.64
64404;BME280;50726;54.912;-8.392;2023-02-03T06:10:37;101731.69;;;29.74;63.68
64404;BME280;50726;54.912;-8.392;2023-02-03T06:13:14;101749.78;;;29.20;66.80
64404;BME280;50726;54.912;-8.392;2023-02-03T06:15:41;101736.75;;;30.30;65.72
64404;BME280;50726;54.912;-8.392;2023-02-03T06:18:06;101729.66;;;29.45;67.04
64404;BME280;50726;54.912;-8.392;2023-02-03T06:20:33;101714.22;;;29.47;68.47
64404;BME280;50726;54.912;-8.392;2023-02-03T06:22:59;101699.66;;;29.07;68.06
64404;BME280;50726;54.912;-8.392;2023-02-03T06:25:24;101716.63;;;28.43;70.69
64404;BME280;50726;54.912;-8.392;2023-02-03T06:27:50;101713.13;;;29.07;70.89
64404;BME280;50726;54.912;-8.392;2023-02-03T06:30:17;101714.16;;;28.95;72.09
64404;BME280;50726;54.912;-8.392;2023-02-03T06:32:42;101705.75;;;28.44;71.37
64404;BME280;50726;54.912;-8.392;2023-02-03T06:35:08;101736.44;;;27.73;72.48
64404;BME280;50726;54.912;-8.392;2023-02-03T06:37:34;101720.72;;;27.44;75.45
64404;BME280;50726;54.912;-8.392;2023-02-03T06:40:00;101709.75;;;29.15;69.71
64404;BME280;50726;54.912;-8.392;2023-02-03T06:42:26;101715.31;;;29.14;70.83
64404;BME280;50726;54.912;-8.392;2023-02-03T06:44:51;101715.31;;;28.37;72.14
64404;BME280;50726;54.912;-8.392;2023-02-03T06:47:18;101708.50;;;28.65;73.56
64404;BME280;50726;54.912;-8.392;2023-02-03T06:49:43;101722.41;;;27.92;71.93
64404;BME280;50726;54.912;-8.392;2023-02-03T06:52:09;101757.34;;;29.05;76.12
64404;BME280;50726;54.912;-8.392;2023-02-03T06:54:35;101764.56;;;27.69;76.19
64404;BME280;50726;54.912;-8.392;2023-02-03T06:57:00;101757.81;;;27.27;76.44
64404;BME280;50726;54.912;-8.392;2023-02-03T06:59:26;101739.88;;;28.32;75.12
64404;BME280;50726;54.912;-8.392;2023-02-03T07:01:51;101757.72;;;27.87;73.79
64404;BME280;50726;54.912;-8.392;2023-02-03T07:04:17;101749.28;;;27.92;76.89
64404;BME280;50726;54.912;-8.392;2023-02-03T07:06:43;101773.56;;;27.68;75.39
64404;BME280;50726;54.912;-8.392;2023-02-03T07:09:08;101735.69;;;28.84;74.42
64404;BME280;50726;54.912;-8.392;2023-02-03T07:11:34;101714.78;;;28.54;73.03
64404;BME280;50726;54.912;-8.392;2023-02-03T07:14:00;101722.50;;;28.48;73.20
64404;BME280;50726;54.912;-8.392;2023-02-03T07:16:26;101733.75;;;29.18;74.51
64404;BME280;50726;54.912;-8.392;2023-02-03T07:18:52;101729.59;;;29.35;71.57
64404;BME280;50726;54.912;-8.392;2023-02-03T07:21:18;101736.06;;;28.46;72.52
64404;BME280;50726;54.912;-8.392;2023-02-03T07:23:46;101732.00;;;29.29;72.11
64404;BME280;50726;54.912;-8.392;2023-02-03T07:26:13;101739.38;;;28.83;71.42
64404;BME280;50726;54.912;-8.392;2023-02-03T07:28:40;101765.53;;;28.48;73.89
64404;BME280;50726;54.912;-8.392;2023-02-03T07:31:06;101726.41;;;27.98;74.26
64404;BME280;50726;54.912;-8.392;2023-02-03T07:33:35;101753.72;;;28.27;73.15
64404;BME280;50726;54.912;-8.392;2023-02-03T07:36:01;101761.19;;;28.24;74.53
64404;BME280;50726;54.912;-8.392;2023-02-03T07:38:28;101774.59;;;28.01;73.35
64404;BME280;50726;54.912;-8.392;2023-02-03T07:40:54;101773.56;;;28.71;71.67
64404;BME280;50726;54.912;-8.392;2023-02-03T07:43:20;101798.91;;;27.16;74.20
64404;BME280;50726;54.912;-8.392;2023-02-03T07:45:49;101810.56;;;29.01;71.11
64404;BME280;50726;54.912;-8.392;2023-02-03T07:48:15;101891.94;;;27.66;73.09
64404;BME280;50726;54.912;-8.392;2023-02-03T07:50:40;101776.94;;;29.28;69.04
64404;BME280;50726;54.912;-8.392;2023-02-03T07:53:07;101781.94;;;30.07;67.97
64404;BME280;50726;54.912;-8.392;2023-02-03T07:55:36;101806.34;;;29.74;70.64
64404;BME280;50726;54.912;-8.392;2023-02-03T07:58:02;101801.31;;;28.71;69.50
64404;BME280;50726;54.912;-8.392;2023-02-03T08:00:27;101823.56;;;27.82;70.65
64404;BME280;50726;54.912;-8.392;2023-02-03T08:02:53;101793.66;;;29.96;67.08
64404;BME280;50726;54.912;-8.392;2023-02-03T08:05:21;101787.66;;;29.40;68.29
64404;BME280;50726;54.912;-8.392;2023-02-03T08:07:47;101801.41;;;28.92;68.98
64404;BME280;50726;54.912;-8.392;2023-02-03T08:10:13;101801.94;;;28.75;69.61
64404;BME280;50726;54.912;-8.392;2023-02-03T08:12:40;101810.22;;;27.80;73.17
64404;BME280;50726;54.912;-8.392;2023-02-03T08:15:08;101823.47;;;28.06;70.96
64404;BME280;50726;54.912;-8.392;2023-02-03T08:17:33;101826.41;;;28.03;69.85
64404;BME280;50726;54.912;-8.392;2023-02-03T08:20:05;101817.47;;;31.63;63.33
64404;BME280;50726;54.912;-8.392;2023-02-03T08:22:32;101806.31;;;29.95;66.71
64404;BME280;50726;54.912;-8.392;2023-02-03T08:24:58;101815.88;;;29.24;66.89
64404;BME280;50726;54.912;-8.392;2023-02-03T08:27:23;101853.72;;;28.67;66.18
64404;BME280;50726;54.912;-8.392;2023-02-03T08:29:49;101815.28;;;29.74;63.58
64404;BME280;50726;54.912;-8.392;2023-02-03T08:32:19;101826.91;;;29.96;63.42
64404;BME280;50726;54.912;-8.392;2023-02-03T08:34:50;101839.41;;;30.60;63.70
64404;BME280;50726;54.912;-8.392;2023-02-03T08:37:21;101892.97;;;30.64;61.26
64404;BME280;50726;54.912;-8.392;2023-02-03T08:39:49;101876.84;;;28.70;63.97
64404;BME280;50726;54.912;-8.392;2023-02-03T08:42:14;101838.56;;;28.43;66.78
64404;BME280;50726;54.912;-8.392;2023-02-03T08:44:40;101847.69;;;28.18;65.13
64404;BME280;50726;54.912;-8.392;2023-02-03T08:47:08;101862.78;;;30.39;63.25
64404;BME280;50726;54.912;-8.392;2023-02-03T08:49:34;101851.25;;;27.11;66.56
64404;BME280;50726;54.912;-8.392;2023-02-03T08:52:00;101865.16;;;30.33;62.70
64404;BME280;50726;54.912;-8.392;2023-02-03T08:54:26;101871.03;;;29.08;63.02
64404;BME280;50726;54.912;-8.392;2023-02-03T08:56:52;101913.28;;;28.62;63.15
64404;BME280;50726;54.912;-8.392;2023-02-03T08:59:18;101860.19;;;29.85;60.68
64404;BME280;50726;54.912;-8.392;2023-02-03T09:01:44;101847.16;;;29.04;64.57
64404;BME280;50726;54.912;-8.392;2023-02-03T09:04:14;101874.91;;;30.02;63.97
64404;BME280;50726;54.912;-8.392;2023-02-03T09:06:44;101863.06;;;30.46;61.40
64404;BME280;50726;54.912;-8.392;2023-02-03T09:09:13;101858.44;;;31.78;58.93
64404;BME280;50726;54.912;-8.392;2023-02-03T09:11:40;101875.72;;;29.93;60.64
64404;BME280;50726;54.912;-8.392;2023-02-03T09:14:06;101849.97;;;30.32;56.87
64404;BME280;50726;54.912;-8.392;2023-02-03T09:16:32;101874.25;;;31.43;54.79
64404;BME280;50726;54.912;-8.392;2023-02-03T09:18:58;101860.09;;;30.90;56.43
64404;BME280;50726;54.912;-8.392;2023-02-03T09:21:24;101871.41;;;31.45;54.20
64404;BME280;50726;54.912;-8.392;2023-02-03T09:23:49;101866.31;;;31.42;54.28
64404;BME280;50726;54.912;-8.392;2023-02-03T09:26:15;101859.72;;;30.23;54.22
64404;BME280;50726;54.912;-8.392;2023-02-03T09:28:41;101870.94;;;33.84;52.03
64404;BME280;50726;54.912;-8.392;2023-02-03T09:31:09;101861.69;;;32.67;51.90
64404;BME280;50726;54.912;-8.392;2023-02-03T09:33:35;101877.78;;;32.97;49.94
64404;BME280;50726;54.912;-8.392;2023-02-03T09:36:02;101882.44;;;31.02;53.67
64404;BME280;50726;54.912;-8.392;2023-02-03T09:38:31;101891.09;;;30.55;53.01
64404;BME280;50726;54.912;-8.392;2023-02-03T09:41:11;101870.81;;;31.91;53.92
64404;BME280;50726;54.912;-8.392;2023-02-03T09:43:44;101890.66;;;33.50;52.50
64404;BME280;50726;54.912;-8.392;2023-02-03T09:46:18;101876.50;;;31.68;52.65
64404;BME280;50726;54.912;-8.392;2023-02-03T09:48:55;101902.16;;;32.41;51.10
64404;BME280;50726;54.912;-8.392;2023-02-03T09:51:33;101922.34;;;31.79;54.96
64404;BME280;50726;54.912;-8.392;2023-02-03T09:54:14;101894.63;;;34.26;50.05
64404;BME280;50726;54.912;-8.392;2023-02-03T09:56:41;101896.66;;;30.53;56.18
64404;BME280;50726;54.912;-8.392;2023-02-03T09:59:15;101909.97;;;31.47;52.83
64404;BME280;50726;54.912;-8.392;2023-02-03T10:01:56;101919.03;;;31.26;53.63
64404;BME280;50726;54.912;-8.392;2023-02-03T10:04:35;101905.28;;;33.39;51.06
64404;BME280;50726;54.912;-8.392;2023-02-03T10:07:16;101904.00;;;32.40;51.86
64404;BME280;50726;54.912;-8.392;2023-02-03T10:10:03;101912.06;;;32.12;50.47
64404;BME280;50726;54.912;-8.392;2023-02-03T10:18:22;101926.06;;;31.88;53.70
64404;BME280;50726;54.912;-8.392;2023-02-03T10:20:57;101907.94;;;32.56;50.58
64404;BME280;50726;54.912;-8.392;2023-02-03T10:23:35;101934.69;;;32.69;51.28
64404;BME280;50726;54.912;-8.392;2023-02-03T10:26:22;101915.31;;;32.64;51.51
64404;BME280;50726;54.912;-8.392;2023-02-03T10:29:06;101932.78;;;32.51;50.76
64404;BME280;50726;54.912;-8.392;2023-02-03T10:31:37;101967.31;;;31.80;51.63
64404;BME280;50726;54.912;-8.392;2023-02-03T10:34:14;101934.44;;;31.45;53.05
64404;BME280;50726;54.912;-8.392;2023-02-03T10:36:54;101952.50;;;30.63;52.69
64404;BME280;50726;54.912;-8.392;2023-02-03T10:41:49;101929.91;;;30.33;54.61
64404;BME280;50726;54.912;-8.392;2023-02-03T10:44:15;101928.97;;;31.26;53.11
64404;BME280;50726;54.912;-8.392;2023-02-03T10:46:42;101920.25;;;30.92;53.86
64404;BME280;50726;54.912;-8.392;2023-02-03T10:49:11;101944.13;;;31.68;54.44
64404;BME280;50726;54.912;-8.392;2023-02-03T10:51:48;101969.50;;;31.16;52.52
64404;BME280;50726;54.912;-8.392;2023-02-03T10:56:57;101937.13;;;32.90;51.38
64404;BME280;50726;54.912;-8.392;2023-02-03T10:59:32;101964.13;;;33.10;51.41
64404;BME280;50726;54.912;-8.392;2023-02-03T11:02:26;101974.13;;;32.34;51.83
64404;BME280;50726;54.912;-8.392;2023-02-03T11:07:42;101963.09;;;33.39;49.57
64404;BME280;50726;54.912;-8.392;2023-02-03T11:10:34;101978.38;;;32.84;49.25
64404;BME280;50726;54.912;-8.392;2023-02-03T11:13:23;101998.28;;;33.85;49.45
64404;BME280;50726;54.912;-8.392;2023-02-03T11:21:06;101986.19;;;30.90;53.35
64404;BME280;50726;54.912;-8.392;2023-02-03T11:23:32;101988.78;;;31.52;52.35
64404;BME280;50726;54.912;-8.392;2023-02-03T11:25:57;101984.00;;;31.25;52.65
64404;BME280;50726;54.912;-8.392;2023-02-03T11:28:26;101980.84;;;31.60;53.49
64404;BME280;50726;54.912;-8.392;2023-02-03T11:30:56;101984.94;;;30.94;53.91
64404;BME280;50726;54.912;-8.392;2023-02-03T11:33:25;101986.50;;;31.57;52.93
64404;BME280;50726;54.912;-8.392;2023-02-03T11:35:57;102024.09;;;29.82;56.53
64404;BME280;50726;54.912;-8.392;2023-02-03T11:38:33;101993.97;;;31.95;52.75
64404;BME280;50726;54.912;-8.392;2023-02-03T11:41:03;101993.16;;;30.40;53.75
64404;BME280;50726;54.912;-8.392;2023-02-03T11:43:28;102008.03;;;32.48;51.38
64404;BME280;50726;54.912;-8.392;2023-02-03T11:46:00;102005.31;;;32.28;51.55
64404;BME280;50726;54.912;-8.392;2023-02-03T11:48:52;102010.03;;;31.96;52.73
64404;BME280;50726;54.912;-8.392;2023-02-03T11:51:36;102004.03;;;31.63;52.49
64404;BME280;50726;54.912;-8.392;2023-02-03T11:54:30;102011.16;;;31.54;52.81
64404;BME280;50726;54.912;-8.392;2023-02-03T11:57:26;101987.81;;;31.53;52.13
64404;BME280;50726;54.912;-8.392;2023-02-03T12:00:15;102010.09;;;33.58;50.35
64404;BME280;50726;54.912;-8.392;2023-02-03T12:08:47;102008.16;;;33.86;49.04
64404;BME280;50726;54.912;-8.392;2023-02-03T12:34:34;102000.06;;;32.07;49.67
64404;BME280;50726;54.912;-8.392;2023-02-03T12:37:11;102004.88;;;33.83;47.69
64404;BME280;50726;54.912;-8.392;2023-02-03T12:39:53;101991.91;;;33.22;48.20
64404;BME280;50726;54.912;-8.392;2023-02-03T12:45:25;102004.63;;;32.16;50.32
64404;BME280;50726;54.912;-8.392;2023-02-03T12:50:38;102004.53;;;30.65;49.74
64404;BME280;50726;54.912;-8.392;2023-02-03T12:53:28;102010.50;;;33.35;48.51
64404;BME280;50726;54.912;-8.392;2023-02-03T12:56:04;101971.16;;;30.97;52.09
64404;BME280;50726;54.912;-8.392;2023-02-03T12:58:46;102018.31;;;30.93;51.45
64404;BME280;50726;54.912;-8.392;2023-02-03T13:01:31;102024.09;;;31.80;50.58
64404;BME280;50726;54.912;-8.392;2023-02-03T13:07:15;102043.34;;;30.85;53.16
64404;BME280;50726;54.912;-8.392;2023-02-03T13:10:21;102052.81;;;30.58;51.24
64404;BME280;50726;54.912;-8.392;2023-02-03T13:12:53;102017.91;;;32.67;48.49
64404;BME280;50726;54.912;-8.392;2023-02-03T13:15:33;102033.34;;;33.32;48.36
64404;BME280;50726;54.912;-8.392;2023-02-03T13:18:27;102050.69;;;32.74;48.87
64404;BME280;50726;54.912;-8.392;2023-02-03T13:20:55;102039.09;;;32.04;48.01
64404;BME280;50726;54.912;-8.392;2023-02-03T13:23:22;102051.91;;;32.22;49.26
64404;BME280;50726;54.912;-8.392;2023-02-03T13:26:05;102040.91;;;34.30;47.38
64404;BME280;50726;54.912;-8.392;2023-02-03T13:34:14;102045.06;;;32.18;47.33
64404;BME280;50726;54.912;-8.392;2023-02-03T13:42:25;102023.91;;;31.32;49.40
64404;BME280;50726;54.912;-8.392;2023-02-03T13:45:26;102030.16;;;32.71;49.73
64404;BME280;50726;54.912;-8.392;2023-02-03T13:47:56;102038.31;;;33.09;47.69
64404;BME280;50726;54.912;-8.392;2023-02-03T13:50:28;102021.94;;;32.63;47.27
64404;BME280;50726;54.912;-8.392;2023-02-03T13:57:54;102030.41;;;30.67;49.49
64404;BME280;50726;54.912;-8.392;2023-02-03T14:05:56;102019.53;;;31.61;49.16
64404;BME280;50726;54.912;-8.392;2023-02-03T14:16:51;102026.56;;;34.64;44.61
64404;BME280;50726;54.912;-8.392;2023-02-03T14:21:51;102039.41;;;29.81;50.83
64404;BME280;50726;54.912;-8.392;2023-02-03T14:24:19;102045.94;;;32.18;48.42
64404;BME280;50726;54.912;-8.392;2023-02-03T14:26:53;102029.44;;;31.31;50.49
64404;BME280;50726;54.912;-8.392;2023-02-03T14:34:45;102059.88;;;32.33;48.84
64404;BME280;50726;54.912;-8.392;2023-02-03T14:37:17;102048.06;;;33.02;48.91
64404;BME280;50726;54.912;-8.392;2023-02-03T14:47:59;102020.22;;;32.72;49.22
64404;BME280;50726;54.912;-8.392;2023-02-03T14:56:37;102029.38;;;30.59;51.50
64404;BME280;50726;54.912;-8.392;2023-02-03T14:59:24;102023.31;;;31.90;49.03
64404;BME280;50726;54.912;-8.392;2023-02-03T15:04:27;102029.97;;;31.25;49.31
64404;BME280;50726;54.912;-8.392;2023-02-03T15:06:53;102035.91;;;31.59;49.30
64404;BME280;50726;54.912;-8.392;2023-02-03T15:09:41;102031.66;;;31.57;50.22
64404;BME280;50726;54.912;-8.392;2023-02-03T15:12:18;102025.97;;;32.29;49.81
64404;BME280;50726;54.912;-8.392;2023-02-03T15:14:43;102038.13;;;29.41;52.05